Time;durP1;ratioP1;P1;durP2;ratioP2;P2;SDS_P1;SDS_P2;PMS_P1;PMS_P2;Temp;Humidity;BMP_temperature;BMP_pressure;BME280_temperature;BME280_humidity;BME280_pressure;Samples;Min_cycle;Max_cycle;Signal;HPM_P1;HPM_P2
2021/12/20 16:41:06;;;;;;;33.95;16.58;;;;;;;;;;5063000;28;20805;-66
2021/12/20 16:43:36;;;;;;;28.92;15.18;;;;;;;;;;5052557;28;20099;-67
2021/12/20 16:46:09;;;;;;;24.98;13.30;;;;;;;;;;5054552;28;20432;-67
2021/12/20 16:48:36;;;;;;;22.98;13.70;;;;;;;;;;5048702;28;20431;-68
2021/12/20 16:51:02;;;;;;;21.45;13.15;;;;;;;;;;5057081;28;20065;-68
2021/12/20 16:53:28;;;;;;;17.70;11.35;;;;;;;;;;5050455;28;20029;-68
2021/12/20 16:55:55;;;;;;;15.40;9.80;;;;;;;;;;5059339;28;20021;-68
2021/12/20 16:58:21;;;;;;;12.27;8.57;;;;;;;;;;5049560;28;20032;-67
2021/12/20 17:00:48;;;;;;;10.85;9.05;;;;;;;;;;5054620;28;20029;-68
2021/12/20 17:08:19;;;;;;;10.13;7.25;;;;;;;;;;5044501;28;20112;-68
2021/12/20 17:10:45;;;;;;;13.90;8.00;;;;;;;;;;5046511;28;20021;-68
2021/12/20 17:13:11;;;;;;;12.30;8.93;;;;;;;;;;5057532;28;20063;-68
2021/12/20 17:15:38;;;;;;;10.55;7.30;;;;;;;;;;5053781;28;20415;-67
2021/12/20 17:18:05;;;;;;;12.38;8.50;;;;;;;;;;5057514;28;20040;-67
2021/12/20 17:20:31;;;;;;;11.13;7.65;;;;;;;;;;5054374;28;20028;-68
2021/12/20 17:22:58;;;;;;;13.65;8.30;;;;;;;;;;5052419;28;20024;-68
2021/12/20 17:25:24;;;;;;;9.90;7.20;;;;;;;;;;5054049;28;20024;-68
2021/12/20 17:27:50;;;;;;;11.93;8.70;;;;;;;;;;5053411;28;20017;-65
2021/12/20 17:30:16;;;;;;;8.60;6.28;;;;;;;;;;5055508;28;20068;-68
2021/12/20 17:32:42;;;;;;;10.77;7.57;;;;;;;;;;5051837;28;20025;-68
2021/12/20 17:35:08;;;;;;;13.43;7.93;;;;;;;;;;5056450;28;20033;-68
2021/12/20 17:37:34;;;;;;;11.05;6.85;;;;;;;;;;5052542;28;20063;-68
2021/12/20 17:40:04;;;;;;;11.60;7.10;;;;;;;;;;5055575;28;20064;-66
2021/12/20 17:42:30;;;;;;;10.18;7.95;;;;;;;;;;5046923;28;20028;-66
2021/12/20 17:44:56;;;;;;;9.90;7.35;;;;;;;;;;5054251;28;20515;-66
2021/12/20 17:47:22;;;;;;;11.05;8.20;;;;;;;;;;5046176;28;20476;-67
2021/12/20 17:49:48;;;;;;;10.52;7.25;;;;;;;;;;5044814;28;20051;-66
2021/12/20 17:52:14;;;;;;;16.05;8.98;;;;;;;;;;5033979;28;20029;-66
2021/12/20 17:54:40;;;;;;;8.93;7.47;;;;;;;;;;5031493;28;20059;-66
2021/12/20 17:57:07;;;;;;;12.35;8.32;;;;;;;;;;5043744;28;20035;-66
2021/12/20 17:59:33;;;;;;;12.70;7.55;;;;;;;;;;5044264;28;20052;-66
2021/12/20 18:01:59;;;;;;;14.20;9.77;;;;;;;;;;5039242;28;20051;-67
2021/12/20 18:04:26;;;;;;;17.60;12.35;;;;;;;;;;5046815;28;20102;-67
2021/12/20 18:06:53;;;;;;;17.30;13.15;;;;;;;;;;5044366;28;20036;-67
2021/12/20 18:09:19;;;;;;;11.45;8.07;;;;;;;;;;5035264;28;20487;-67
2021/12/20 18:11:46;;;;;;;11.60;8.50;;;;;;;;;;5032488;28;20092;-67
2021/12/20 18:14:12;;;;;;;17.00;11.00;;;;;;;;;;5045712;28;20055;-67
2021/12/20 18:16:38;;;;;;;14.02;9.50;;;;;;;;;;5052531;28;20029;-67
2021/12/20 18:19:04;;;;;;;17.45;10.98;;;;;;;;;;5050705;28;20036;-67
2021/12/20 18:21:31;;;;;;;11.73;8.88;;;;;;;;;;5032864;28;20025;-68
2021/12/20 18:23:57;;;;;;;13.75;10.13;;;;;;;;;;5030862;28;20140;-68
2021/12/20 18:26:24;;;;;;;12.80;9.77;;;;;;;;;;5031531;28;20029;-67
2021/12/20 18:28:50;;;;;;;17.92;11.77;;;;;;;;;;5031289;28;20095;-67
2021/12/20 18:31:17;;;;;;;15.05;9.80;;;;;;;;;;5033930;28;20396;-67
2021/12/20 18:33:43;;;;;;;16.08;11.73;;;;;;;;;;5049713;28;20036;-67
2021/12/20 18:36:09;;;;;;;16.25;11.40;;;;;;;;;;5031579;28;20099;-67
2021/12/20 18:38:36;;;;;;;16.73;12.27;;;;;;;;;;5031203;28;20025;-67
2021/12/20 18:41:02;;;;;;;19.48;12.52;;;;;;;;;;5030314;28;20052;-68
2021/12/20 18:43:28;;;;;;;17.00;12.18;;;;;;;;;;5031551;28;20128;-68
2021/12/20 18:45:54;;;;;;;17.40;12.73;;;;;;;;;;5042933;28;20040;-68
2021/12/20 18:48:21;;;;;;;21.17;11.05;;;;;;;;;;5032921;28;20038;-66
2021/12/20 18:50:50;;;;;;;17.67;12.15;;;;;;;;;;5039452;28;20556;-69
2021/12/20 18:53:16;;;;;;;16.13;11.20;;;;;;;;;;5039571;28;20392;-69
2021/12/20 18:55:42;;;;;;;15.30;10.88;;;;;;;;;;5041923;28;20029;-69
2021/12/20 18:58:08;;;;;;;17.75;11.30;;;;;;;;;;5033779;28;20321;-69
2021/12/20 19:00:35;;;;;;;15.27;11.30;;;;;;;;;;5039425;28;20531;-69
2021/12/20 19:03:06;;;;;;;17.90;11.60;;;;;;;;;;5031468;28;20435;-68
2021/12/20 19:05:33;;;;;;;14.10;10.15;;;;;;;;;;5031624;28;20028;-69
2021/12/20 19:07:59;;;;;;;15.93;11.60;;;;;;;;;;5030694;28;20424;-67
2021/12/20 19:10:30;;;;;;;15.32;11.88;;;;;;;;;;5033159;28;20388;-68
2021/12/20 19:13:00;;;;;;;16.70;11.98;;;;;;;;;;5036421;28;20029;-70
2021/12/20 19:15:26;;;;;;;17.63;13.05;;;;;;;;;;5031640;28;20476;-70
2021/12/20 19:17:52;;;;;;;20.00;13.13;;;;;;;;;;5032912;28;20471;-69
2021/12/20 19:20:18;;;;;;;16.38;12.10;;;;;;;;;;5031677;28;20021;-69
2021/12/20 19:22:44;;;;;;;15.55;11.63;;;;;;;;;;5034033;28;20888;-68
2021/12/20 19:25:10;;;;;;;17.27;12.95;;;;;;;;;;5033378;28;20079;-69
2021/12/20 19:27:36;;;;;;;16.58;13.07;;;;;;;;;;5032499;28;20067;-68
2021/12/20 19:30:03;;;;;;;15.15;11.95;;;;;;;;;;5032585;28;20052;-69
2021/12/20 19:32:29;;;;;;;21.80;12.55;;;;;;;;;;5033134;28;20025;-68
2021/12/20 19:34:55;;;;;;;24.77;14.60;;;;;;;;;;5031293;28;20071;-68
2021/12/20 19:37:21;;;;;;;15.00;10.75;;;;;;;;;;5030023;28;20549;-68
2021/12/20 19:39:47;;;;;;;13.73;11.00;;;;;;;;;;5031751;28;20052;-69
2021/12/20 19:42:14;;;;;;;16.95;11.82;;;;;;;;;;5030682;28;20124;-68
2021/12/20 19:44:40;;;;;;;13.38;11.13;;;;;;;;;;5032422;28;20108;-68
2021/12/20 19:47:07;;;;;;;14.40;10.65;;;;;;;;;;5035564;28;20646;-69
2021/12/20 19:49:33;;;;;;;15.13;10.60;;;;;;;;;;5031057;28;20541;-68
2021/12/20 19:52:00;;;;;;;16.40;11.10;;;;;;;;;;5048627;28;20823;-68
2021/12/20 19:54:27;;;;;;;19.38;13.60;;;;;;;;;;5029272;28;20018;-68
2021/12/20 19:56:53;;;;;;;13.05;9.52;;;;;;;;;;5028320;28;20032;-69
2021/12/20 19:59:20;;;;;;;15.35;11.23;;;;;;;;;;5029084;28;20056;-69
2021/12/20 20:01:49;;;;;;;14.00;10.68;;;;;;;;;;5028312;28;20033;-68
2021/12/20 20:04:18;;;;;;;15.68;10.55;;;;;;;;;;5029365;28;20447;-68
2021/12/20 20:06:44;;;;;;;11.98;8.80;;;;;;;;;;5047707;28;20024;-70
2021/12/20 20:09:11;;;;;;;15.80;11.90;;;;;;;;;;5032484;28;20124;-68
2021/12/20 20:11:37;;;;;;;14.90;10.48;;;;;;;;;;5030823;28;20033;-70
2021/12/20 20:14:03;;;;;;;14.68;10.88;;;;;;;;;;5030414;28;20484;-69
2021/12/20 20:16:29;;;;;;;16.98;9.55;;;;;;;;;;5033313;28;20022;-71
2021/12/20 20:18:57;;;;;;;13.25;9.40;;;;;;;;;;5029666;28;20033;-68
2021/12/20 20:21:24;;;;;;;13.70;8.45;;;;;;;;;;5033177;28;20025;-66
2021/12/20 20:23:50;;;;;;;14.32;9.38;;;;;;;;;;5025326;28;20022;-68
2021/12/20 20:26:17;;;;;;;17.80;12.98;;;;;;;;;;5025539;28;20029;-67
2021/12/20 20:28:46;;;;;;;11.50;9.02;;;;;;;;;;5031162;28;20495;-68
2021/12/20 20:31:12;;;;;;;12.65;9.30;;;;;;;;;;5025692;28;20025;-66
2021/12/20 20:33:38;;;;;;;11.70;8.80;;;;;;;;;;5027307;28;20027;-66
2021/12/20 20:36:04;;;;;;;15.02;8.40;;;;;;;;;;5025350;28;20448;-68
2021/12/20 20:38:30;;;;;;;11.52;8.77;;;;;;;;;;5028148;28;20029;-66
2021/12/20 20:40:56;;;;;;;11.23;8.73;;;;;;;;;;5028174;28;20080;-69
2021/12/20 20:43:22;;;;;;;15.32;9.13;;;;;;;;;;5025113;28;20551;-69
2021/12/20 20:45:48;;;;;;;12.23;8.82;;;;;;;;;;5024279;28;20093;-68
2021/12/20 20:48:14;;;;;;;14.43;9.60;;;;;;;;;;5028640;28;20021;-68
2021/12/20 20:50:40;;;;;;;15.43;11.30;;;;;;;;;;5027658;28;20104;-66
2021/12/20 20:53:06;;;;;;;10.52;9.10;;;;;;;;;;5033918;28;20047;-65
2021/12/20 20:55:33;;;;;;;14.48;8.57;;;;;;;;;;5032909;28;20037;-66
2021/12/20 20:57:59;;;;;;;12.90;9.40;;;;;;;;;;5028970;28;20017;-62
2021/12/20 21:03:10;;;;;;;18.70;11.60;;;;;;;;;;5039863;28;20111;-64
2021/12/20 21:05:36;;;;;;;12.77;9.25;;;;;;;;;;5030283;28;20140;-65
2021/12/20 21:08:03;;;;;;;12.70;7.45;;;;;;;;;;5036254;28;20082;-64
2021/12/20 21:10:29;;;;;;;15.93;8.85;;;;;;;;;;5039281;28;20029;-64
2021/12/20 21:12:55;;;;;;;13.30;7.10;;;;;;;;;;5040663;28;20083;-64
2021/12/20 21:15:21;;;;;;;10.95;7.03;;;;;;;;;;5038206;28;20488;-64
2021/12/20 21:17:47;;;;;;;10.32;7.80;;;;;;;;;;5041379;28;20480;-64
2021/12/20 21:20:13;;;;;;;12.75;7.35;;;;;;;;;;5038371;28;20120;-63
2021/12/20 21:22:39;;;;;;;12.13;7.53;;;;;;;;;;5036582;28;20025;-64
2021/12/20 21:25:06;;;;;;;15.50;7.55;;;;;;;;;;5032938;28;20435;-64
2021/12/20 21:27:32;;;;;;;12.88;7.25;;;;;;;;;;5035930;28;20877;-64
2021/12/20 21:29:58;;;;;;;11.73;7.95;;;;;;;;;;5040410;28;20083;-64
2021/12/20 21:32:24;;;;;;;9.70;7.03;;;;;;;;;;5039198;28;20538;-64
2021/12/20 21:34:50;;;;;;;8.40;6.85;;;;;;;;;;5044826;28;20029;-64
2021/12/20 21:37:16;;;;;;;9.15;7.15;;;;;;;;;;5042548;28;20075;-64
2021/12/20 21:39:42;;;;;;;12.75;8.13;;;;;;;;;;5049355;28;20049;-64
2021/12/20 21:42:09;;;;;;;15.80;7.93;;;;;;;;;;5037007;28;20488;-64
2021/12/20 21:44:35;;;;;;;10.20;7.35;;;;;;;;;;5047078;28;20029;-64
2021/12/20 21:47:01;;;;;;;14.25;7.80;;;;;;;;;;5040354;28;20104;-64
2021/12/20 21:49:27;;;;;;;12.95;7.78;;;;;;;;;;5044979;28;20028;-64
2021/12/20 21:51:53;;;;;;;11.63;6.55;;;;;;;;;;5045349;28;20104;-64
2021/12/20 21:54:19;;;;;;;11.15;6.95;;;;;;;;;;5036544;28;20025;-64
2021/12/20 21:56:45;;;;;;;14.73;7.43;;;;;;;;;;5048482;28;20114;-64
2021/12/20 21:59:11;;;;;;;11.63;7.95;;;;;;;;;;5037880;28;20033;-64
2021/12/20 22:01:38;;;;;;;12.30;7.20;;;;;;;;;;5034924;28;20021;-63
2021/12/20 22:04:05;;;;;;;9.50;6.63;;;;;;;;;;5040511;28;20029;-65
2021/12/20 22:06:31;;;;;;;9.82;6.70;;;;;;;;;;5041573;28;20037;-64
2021/12/20 22:08:57;;;;;;;10.60;7.60;;;;;;;;;;5033340;28;20136;-64
2021/12/20 22:11:23;;;;;;;9.35;6.55;;;;;;;;;;5032644;28;20048;-65
2021/12/20 22:13:49;;;;;;;14.18;7.65;;;;;;;;;;5028640;28;20021;-65
2021/12/20 22:16:15;;;;;;;7.70;5.78;;;;;;;;;;5029937;28;20143;-63
2021/12/20 22:18:41;;;;;;;9.63;7.18;;;;;;;;;;5036060;28;20064;-63
2021/12/20 22:21:07;;;;;;;13.05;7.75;;;;;;;;;;5034230;28;20032;-65
2021/12/20 22:23:34;;;;;;;10.88;6.95;;;;;;;;;;5030954;28;20108;-63
2021/12/20 22:26:00;;;;;;;9.25;7.30;;;;;;;;;;5028880;28;20124;-63
2021/12/20 22:28:26;;;;;;;12.05;8.10;;;;;;;;;;5030782;28;20520;-63
2021/12/20 22:30:52;;;;;;;11.18;8.50;;;;;;;;;;5032949;28;20029;-63
2021/12/20 22:33:18;;;;;;;13.38;9.00;;;;;;;;;;5035716;28;20025;-63
2021/12/20 22:35:45;;;;;;;16.00;8.00;;;;;;;;;;5035785;28;20148;-63
2021/12/20 22:38:11;;;;;;;16.75;8.65;;;;;;;;;;5042831;28;20515;-63
2021/12/20 22:40:37;;;;;;;11.05;7.40;;;;;;;;;;5041246;28;20272;-64
2021/12/20 22:43:03;;;;;;;11.40;8.23;;;;;;;;;;5031030;28;20105;-63
2021/12/20 22:45:29;;;;;;;10.55;7.88;;;;;;;;;;5031102;28;20029;-63
2021/12/20 22:47:55;;;;;;;11.38;8.68;;;;;;;;;;5030842;28;20029;-63
2021/12/20 22:50:21;;;;;;;10.70;7.47;;;;;;;;;;5031705;28;20032;-63
2021/12/20 22:52:48;;;;;;;14.02;9.27;;;;;;;;;;5031288;28;20404;-63
2021/12/20 22:55:14;;;;;;;11.77;8.60;;;;;;;;;;5036110;28;20044;-63
2021/12/20 22:57:40;;;;;;;12.98;9.05;;;;;;;;;;5030348;28;20049;-63
2021/12/20 23:00:10;;;;;;;10.63;8.25;;;;;;;;;;5036524;28;20038;-63
2021/12/20 23:02:37;;;;;;;14.52;9.25;;;;;;;;;;5034633;28;20484;-63
2021/12/20 23:05:03;;;;;;;15.77;9.25;;;;;;;;;;5032899;28;20025;-63
